RYR4257 LROP-LRCL
Flight info
| Callsign | RYR4257 |
|---|---|
| Flight time | 0h 39m |
| Altitude | 30000 |
| Route | BUKEL DCT EDETA |
| Aircraft | B738/M-SDE2E3FGHIRWXY/LB1 |
Departure
| Time | 2026-04-26 15:30 |
|---|---|
| Airport | Bucharest Henri Coandă International Airport (LROP) |
Arrival
| Time | 2026-04-26 16:10 |
|---|---|
| Airport | Avram Iancu Cluj International Airport (LRCL) |
| Time | Latitude | Longitude | Altitude | Speed | Heading |
|---|---|---|---|---|---|
| 2026-04-26 15:15 | 44.56909 | 26.09101 | 321 ft | 0 kts | 173° |
| 2026-04-26 15:24 | 44.56905 | 26.09101 | 320 ft | 2 kts | 173° |
| 2026-04-26 15:24 | 44.56883 | 26.09105 | 320 ft | 5 kts | 171° |
| 2026-04-26 15:24 | 44.56862 | 26.09143 | 321 ft | 6 kts | 96° |
| 2026-04-26 15:24 | 44.56865 | 26.09211 | 321 ft | 8 kts | 84° |
| 2026-04-26 15:25 | 44.56873 | 26.09305 | 321 ft | 11 kts | 83° |
| 2026-04-26 15:25 | 44.56883 | 26.09424 | 321 ft | 14 kts | 84° |
| 2026-04-26 15:25 | 44.56894 | 26.09565 | 321 ft | 16 kts | 83° |
| 2026-04-26 15:25 | 44.56907 | 26.09731 | 320 ft | 18 kts | 84° |
| 2026-04-26 15:26 | 44.56928 | 26.09906 | 321 ft | 16 kts | 54° |
| 2026-04-26 15:26 | 44.56980 | 26.09919 | 321 ft | 8 kts | 358° |
| 2026-04-26 15:26 | 44.57022 | 26.09973 | 321 ft | 10 kts | 75° |
| 2026-04-26 15:26 | 44.57035 | 26.10084 | 321 ft | 13 kts | 83° |
| 2026-04-26 15:27 | 44.57045 | 26.10228 | 322 ft | 17 kts | 84° |
| 2026-04-26 15:27 | 44.57058 | 26.10407 | 322 ft | 20 kts | 84° |
| 2026-04-26 15:27 | 44.57047 | 26.10612 | 320 ft | 23 kts | 118° |
| 2026-04-26 15:27 | 44.56926 | 26.10741 | 321 ft | 21 kts | 172° |
| 2026-04-26 15:28 | 44.56842 | 26.10753 | 321 ft | 0 kts | 174° |
| 2026-04-26 15:28 | 44.56835 | 26.10754 | 321 ft | 2 kts | 174° |
| 2026-04-26 15:28 | 44.56817 | 26.10756 | 321 ft | 3 kts | 174° |
| 2026-04-26 15:28 | 44.56787 | 26.10761 | 321 ft | 5 kts | 174° |
| 2026-04-26 15:29 | 44.56738 | 26.10765 | 321 ft | 8 kts | 187° |
| 2026-04-26 15:29 | 44.56696 | 26.10709 | 322 ft | 10 kts | 254° |
| 2026-04-26 15:29 | 44.56623 | 26.09778 | 321 ft | 114 kts | 264° |
| 2026-04-26 15:30 | 44.56370 | 26.06725 | 1352 ft | 189 kts | 269° |
| 2026-04-26 15:30 | 44.56238 | 26.04920 | 2561 ft | 185 kts | 270° |
| 2026-04-26 15:30 | 44.56104 | 26.03054 | 3267 ft | 202 kts | 269° |
| 2026-04-26 15:31 | 44.55952 | 26.01040 | 3906 ft | 209 kts | 269° |
| 2026-04-26 15:31 | 44.57214 | 25.97258 | 4796 ft | 246 kts | 331° |
| 2026-04-26 15:31 | 44.58912 | 25.96700 | 5633 ft | 257 kts | 354° |
| 2026-04-26 15:32 | 44.61970 | 25.96904 | 6960 ft | 271 kts | 0° |
| 2026-04-26 15:32 | 44.64483 | 25.97179 | 8165 ft | 273 kts | 0° |
| 2026-04-26 15:32 | 44.66397 | 25.97367 | 9023 ft | 277 kts | 359° |
| 2026-04-26 15:33 | 44.68331 | 25.97537 | 9888 ft | 280 kts | 359° |
| 2026-04-26 15:33 | 44.70295 | 25.97696 | 10417 ft | 295 kts | 359° |
| 2026-04-26 15:33 | 44.72442 | 25.97864 | 10615 ft | 320 kts | 359° |
| 2026-04-26 15:33 | 44.74752 | 25.97945 | 10806 ft | 340 kts | 350° |
| 2026-04-26 15:34 | 44.76936 | 25.96724 | 11280 ft | 342 kts | 321° |
| 2026-04-26 15:34 | 44.78695 | 25.94491 | 12129 ft | 340 kts | 315° |
| 2026-04-26 15:34 | 44.80432 | 25.92273 | 12945 ft | 343 kts | 322° |
| 2026-04-26 15:34 | 44.82660 | 25.91009 | 13687 ft | 354 kts | 347° |
| 2026-04-26 15:35 | 44.85139 | 25.90752 | 14424 ft | 358 kts | 353° |
| 2026-04-26 15:35 | 44.87636 | 25.90468 | 15047 ft | 359 kts | 345° |
| 2026-04-26 15:35 | 44.89850 | 25.89040 | 15629 ft | 356 kts | 319° |
| 2026-04-26 15:35 | 44.91475 | 25.86415 | 16355 ft | 356 kts | 306° |
| 2026-04-26 15:36 | 44.92956 | 25.83576 | 16964 ft | 360 kts | 309° |
| 2026-04-26 15:36 | 44.94892 | 25.81298 | 17470 ft | 369 kts | 333° |
| 2026-04-26 15:36 | 44.97380 | 25.80284 | 18186 ft | 375 kts | 346° |
| 2026-04-26 15:36 | 44.99922 | 25.79614 | 18737 ft | 377 kts | 345° |
| 2026-04-26 15:37 | 45.02387 | 25.78330 | 19182 ft | 376 kts | 324° |
| 2026-04-26 15:37 | 45.04254 | 25.75749 | 19761 ft | 375 kts | 309° |
| 2026-04-26 15:37 | 45.05830 | 25.72865 | 20308 ft | 377 kts | 308° |
| 2026-04-26 15:37 | 45.07678 | 25.70192 | 20720 ft | 385 kts | 326° |
| 2026-04-26 15:38 | 45.10223 | 25.68906 | 21261 ft | 393 kts | 347° |
| 2026-04-26 15:38 | 45.12947 | 25.68390 | 21848 ft | 395 kts | 349° |
| 2026-04-26 15:38 | 45.15625 | 25.67703 | 22240 ft | 395 kts | 338° |
| 2026-04-26 15:38 | 45.17857 | 25.65519 | 22613 ft | 393 kts | 308° |
| 2026-04-26 15:39 | 45.19188 | 25.62182 | 23212 ft | 394 kts | 296° |
| 2026-04-26 15:39 | 45.20349 | 25.58632 | 23627 ft | 397 kts | 298° |
| 2026-04-26 15:39 | 45.21992 | 25.55487 | 23870 ft | 402 kts | 321° |
| 2026-04-26 15:39 | 45.23589 | 25.54098 | 24167 ft | 405 kts | 333° |
| 2026-04-26 15:40 | 45.27070 | 25.52087 | 24763 ft | 407 kts | 335° |
| 2026-04-26 15:40 | 45.29604 | 25.50300 | 25041 ft | 408 kts | 321° |
| 2026-04-26 15:40 | 45.31402 | 25.47281 | 25373 ft | 408 kts | 300° |
| 2026-04-26 15:40 | 45.32677 | 25.43663 | 25832 ft | 409 kts | 296° |
| 2026-04-26 15:41 | 45.33962 | 25.40054 | 26162 ft | 410 kts | 303° |
| 2026-04-26 15:41 | 45.36008 | 25.37240 | 26354 ft | 418 kts | 330° |
| 2026-04-26 15:41 | 45.38792 | 25.35955 | 26831 ft | 422 kts | 344° |
| 2026-04-26 15:41 | 45.41683 | 25.35127 | 27349 ft | 421 kts | 344° |
| 2026-04-26 15:42 | 45.44412 | 25.33876 | 27716 ft | 415 kts | 327° |
| 2026-04-26 15:42 | 45.46424 | 25.31011 | 28152 ft | 409 kts | 301° |
| 2026-04-26 15:42 | 45.47727 | 25.27433 | 28789 ft | 405 kts | 296° |
| 2026-04-26 15:42 | 45.49036 | 25.23878 | 29216 ft | 405 kts | 305° |
| 2026-04-26 15:43 | 45.51113 | 25.21198 | 29477 ft | 410 kts | 330° |
| 2026-04-26 15:43 | 45.53776 | 25.19674 | 29945 ft | 413 kts | 337° |
| 2026-04-26 15:43 | 45.58768 | 25.15955 | 30018 ft | 406 kts | 309° |
| 2026-04-26 15:44 | 45.60348 | 25.12622 | 30032 ft | 405 kts | 301° |
| 2026-04-26 15:44 | 45.63739 | 25.06276 | 30003 ft | 408 kts | 328° |
| 2026-04-26 15:44 | 45.66369 | 25.04778 | 30038 ft | 413 kts | 340° |
| 2026-04-26 15:45 | 45.71726 | 25.01967 | 30015 ft | 406 kts | 320° |
| 2026-04-26 15:45 | 45.73589 | 24.98990 | 30030 ft | 402 kts | 300° |
| 2026-04-26 15:46 | 45.78438 | 24.89483 | 30058 ft | 408 kts | 331° |
| 2026-04-26 15:46 | 45.82874 | 24.87112 | 30041 ft | 403 kts | 335° |
| 2026-04-26 15:47 | 45.85877 | 24.84175 | 30066 ft | 390 kts | 307° |
| 2026-04-26 15:47 | 45.87104 | 24.76766 | 30056 ft | 404 kts | 264° |
| 2026-04-26 15:48 | 45.86182 | 24.68859 | 30011 ft | 386 kts | 279° |
| 2026-04-26 15:48 | 45.86790 | 24.65226 | 30055 ft | 365 kts | 290° |
| 2026-04-26 15:48 | 45.87531 | 24.61862 | 30042 ft | 351 kts | 285° |
| 2026-04-26 15:48 | 45.87642 | 24.58400 | 30071 ft | 344 kts | 268° |
| 2026-04-26 15:49 | 45.87353 | 24.55034 | 30024 ft | 332 kts | 270° |
| 2026-04-26 15:49 | 45.87299 | 24.51806 | 30039 ft | 315 kts | 277° |
| 2026-04-26 15:49 | 45.87455 | 24.48770 | 30037 ft | 302 kts | 279° |
| 2026-04-26 15:49 | 45.87628 | 24.45811 | 30034 ft | 290 kts | 278° |
| 2026-04-26 15:50 | 45.87760 | 24.42973 | 30035 ft | 281 kts | 278° |
| 2026-04-26 15:50 | 45.87868 | 24.40147 | 30071 ft | 287 kts | 277° |
| 2026-04-26 15:50 | 45.87967 | 24.37280 | 30064 ft | 294 kts | 277° |
| 2026-04-26 15:50 | 45.88098 | 24.34316 | 30062 ft | 298 kts | 282° |
| 2026-04-26 15:51 | 45.88803 | 24.31563 | 30052 ft | 294 kts | 307° |
| 2026-04-26 15:51 | 45.90347 | 24.29647 | 30068 ft | 297 kts | 327° |
| 2026-04-26 15:51 | 45.92218 | 24.28201 | 29029 ft | 318 kts | 330° |
| 2026-04-26 15:51 | 45.94262 | 24.26950 | 28045 ft | 328 kts | 338° |
| 2026-04-26 15:52 | 45.96487 | 24.26009 | 27015 ft | 337 kts | 340° |
| 2026-04-26 15:52 | 45.98787 | 24.25133 | 26019 ft | 343 kts | 341° |
| 2026-04-26 15:52 | 46.01114 | 24.24276 | 25124 ft | 346 kts | 341° |
| 2026-04-26 15:52 | 46.02651 | 24.23714 | 24762 ft | 341 kts | 341° |
| 2026-04-26 15:53 | 46.05692 | 24.22602 | 24182 ft | 327 kts | 341° |
| 2026-04-26 15:53 | 46.07813 | 24.21825 | 24062 ft | 310 kts | 341° |
| 2026-04-26 15:53 | 46.09875 | 24.21062 | 23645 ft | 303 kts | 340° |
| 2026-04-26 15:53 | 46.11911 | 24.20299 | 22969 ft | 302 kts | 341° |
| 2026-04-26 15:54 | 46.13936 | 24.19536 | 22349 ft | 298 kts | 340° |
| 2026-04-26 15:54 | 46.15933 | 24.18783 | 21782 ft | 295 kts | 341° |
| 2026-04-26 15:54 | 46.17692 | 24.18120 | 21287 ft | 292 kts | 341° |
| 2026-04-26 15:54 | 46.19654 | 24.17379 | 20722 ft | 290 kts | 341° |
| 2026-04-26 15:55 | 46.21580 | 24.16651 | 20194 ft | 287 kts | 340° |
| 2026-04-26 15:55 | 46.23510 | 24.15922 | 19660 ft | 285 kts | 340° |
| 2026-04-26 15:55 | 46.25417 | 24.15201 | 19131 ft | 282 kts | 340° |
| 2026-04-26 15:55 | 46.27307 | 24.14486 | 18627 ft | 279 kts | 340° |
| 2026-04-26 15:56 | 46.29181 | 24.13776 | 18071 ft | 277 kts | 340° |
| 2026-04-26 15:56 | 46.31021 | 24.13078 | 17489 ft | 275 kts | 341° |
| 2026-04-26 15:56 | 46.32867 | 24.12377 | 16915 ft | 273 kts | 341° |
| 2026-04-26 15:56 | 46.34708 | 24.11677 | 16344 ft | 271 kts | 341° |
| 2026-04-26 15:57 | 46.36508 | 24.10992 | 15813 ft | 268 kts | 341° |
| 2026-04-26 15:57 | 46.38311 | 24.10307 | 15276 ft | 267 kts | 341° |
| 2026-04-26 15:57 | 46.40109 | 24.09624 | 14770 ft | 265 kts | 342° |
| 2026-04-26 15:57 | 46.41299 | 24.09171 | 14445 ft | 263 kts | 342° |
| 2026-04-26 15:58 | 46.43642 | 24.08279 | 13803 ft | 261 kts | 342° |
| 2026-04-26 15:58 | 46.45378 | 24.07619 | 13406 ft | 254 kts | 342° |
| 2026-04-26 15:58 | 46.47050 | 24.06985 | 13022 ft | 248 kts | 342° |
| 2026-04-26 15:58 | 46.48713 | 24.06352 | 12518 ft | 246 kts | 342° |
| 2026-04-26 15:59 | 46.50366 | 24.05721 | 11997 ft | 246 kts | 341° |
| 2026-04-26 15:59 | 46.52030 | 24.05085 | 11497 ft | 245 kts | 341° |
| 2026-04-26 15:59 | 46.53684 | 24.04452 | 11011 ft | 245 kts | 341° |
| 2026-04-26 15:59 | 46.55315 | 24.03828 | 10540 ft | 244 kts | 341° |
| 2026-04-26 16:00 | 46.56956 | 24.03199 | 10084 ft | 243 kts | 341° |
| 2026-04-26 16:00 | 46.58594 | 24.02572 | 9594 ft | 242 kts | 341° |
| 2026-04-26 16:00 | 46.60198 | 24.01957 | 9212 ft | 238 kts | 342° |
| 2026-04-26 16:00 | 46.61792 | 24.01347 | 8894 ft | 232 kts | 342° |
| 2026-04-26 16:01 | 46.63349 | 24.00751 | 8426 ft | 231 kts | 342° |
| 2026-04-26 16:01 | 46.64915 | 24.00149 | 7916 ft | 233 kts | 342° |
| 2026-04-26 16:01 | 46.66479 | 23.99548 | 7488 ft | 231 kts | 342° |
| 2026-04-26 16:01 | 46.68010 | 23.98959 | 7030 ft | 231 kts | 342° |
| 2026-04-26 16:02 | 46.69562 | 23.98361 | 6719 ft | 224 kts | 342° |
| 2026-04-26 16:02 | 46.71004 | 23.97811 | 6618 ft | 204 kts | 342° |
| 2026-04-26 16:02 | 46.72304 | 23.97313 | 6523 ft | 186 kts | 341° |
| 2026-04-26 16:02 | 46.73124 | 23.96998 | 6430 ft | 174 kts | 341° |
| 2026-04-26 16:03 | 46.74587 | 23.96436 | 6206 ft | 155 kts | 341° |
| 2026-04-26 16:03 | 46.75624 | 23.96035 | 5812 ft | 154 kts | 341° |
| 2026-04-26 16:03 | 46.76677 | 23.95623 | 5384 ft | 158 kts | 342° |
| 2026-04-26 16:03 | 46.77742 | 23.95211 | 4949 ft | 160 kts | 342° |
| 2026-04-26 16:04 | 46.78794 | 23.94805 | 4630 ft | 156 kts | 343° |
| 2026-04-26 16:04 | 46.79845 | 23.94399 | 4284 ft | 154 kts | 343° |
| 2026-04-26 16:04 | 46.80844 | 23.94014 | 4230 ft | 149 kts | 343° |
| 2026-04-26 16:04 | 46.81903 | 23.93602 | 4145 ft | 163 kts | 343° |
| 2026-04-26 16:05 | 46.82953 | 23.93075 | 4045 ft | 161 kts | 329° |
| 2026-04-26 16:05 | 46.83610 | 23.91787 | 3920 ft | 164 kts | 288° |
| 2026-04-26 16:05 | 46.83574 | 23.90132 | 3735 ft | 165 kts | 264° |
| 2026-04-26 16:05 | 46.83262 | 23.88559 | 3580 ft | 161 kts | 261° |
| 2026-04-26 16:06 | 46.82929 | 23.86999 | 3458 ft | 158 kts | 261° |
| 2026-04-26 16:06 | 46.82601 | 23.85506 | 3268 ft | 152 kts | 260° |
| 2026-04-26 16:06 | 46.82281 | 23.84095 | 3077 ft | 140 kts | 261° |
| 2026-04-26 16:06 | 46.81983 | 23.82770 | 2948 ft | 135 kts | 261° |
| 2026-04-26 16:07 | 46.81789 | 23.81902 | 2783 ft | 134 kts | 261° |
| 2026-04-26 16:07 | 46.81500 | 23.80617 | 2609 ft | 134 kts | 261° |
| 2026-04-26 16:07 | 46.81200 | 23.79317 | 2429 ft | 135 kts | 260° |
| 2026-04-26 16:07 | 46.80914 | 23.78024 | 2260 ft | 132 kts | 262° |
| 2026-04-26 16:08 | 46.80630 | 23.76767 | 2100 ft | 131 kts | 260° |
| 2026-04-26 16:08 | 46.80335 | 23.75457 | 1886 ft | 136 kts | 259° |
| 2026-04-26 16:08 | 46.80046 | 23.74186 | 1722 ft | 131 kts | 259° |
| 2026-04-26 16:08 | 46.79765 | 23.72931 | 1562 ft | 131 kts | 257° |
| 2026-04-26 16:09 | 46.79483 | 23.71681 | 1409 ft | 129 kts | 256° |
| 2026-04-26 16:09 | 46.79195 | 23.70444 | 1245 ft | 127 kts | 255° |
| 2026-04-26 16:09 | 46.78922 | 23.69254 | 1053 ft | 117 kts | 257° |
| 2026-04-26 16:09 | 46.78706 | 23.68254 | 1031 ft | 85 kts | 251° |
| 2026-04-26 16:10 | 46.78611 | 23.67838 | 1033 ft | 36 kts | 252° |
| 2026-04-26 16:10 | 46.78537 | 23.67509 | 1031 ft | 33 kts | 251° |
| 2026-04-26 16:10 | 46.78475 | 23.67250 | 1032 ft | 24 kts | 242° |
| 2026-04-26 16:10 | 46.78373 | 23.67236 | 1032 ft | 15 kts | 135° |
| 2026-04-26 16:11 | 46.78342 | 23.67371 | 1032 ft | 14 kts | 80° |
| 2026-04-26 16:11 | 46.78362 | 23.67512 | 1032 ft | 14 kts | 79° |
| 2026-04-26 16:11 | 46.78380 | 23.67650 | 1032 ft | 13 kts | 79° |
| 2026-04-26 16:11 | 46.78399 | 23.67788 | 1032 ft | 15 kts | 79° |
| 2026-04-26 16:12 | 46.78420 | 23.67944 | 1032 ft | 16 kts | 79° |
| 2026-04-26 16:12 | 46.78444 | 23.68116 | 1032 ft | 18 kts | 79° |
| 2026-04-26 16:12 | 46.78496 | 23.68504 | 1032 ft | 21 kts | 79° |
| 2026-04-26 16:13 | 46.78486 | 23.68642 | 1032 ft | 8 kts | 165° |
| 2026-04-26 16:13 | 46.78429 | 23.68655 | 1032 ft | 9 kts | 171° |
| 2026-04-26 16:13 | 46.78371 | 23.68671 | 1032 ft | 8 kts | 169° |
| 2026-04-26 16:13 | 46.78314 | 23.68675 | 1032 ft | 8 kts | 200° |
| 2026-04-26 16:14 | 46.78296 | 23.68610 | 1032 ft | 4 kts | 291° |
| 2026-04-26 16:14 | 46.78318 | 23.68593 | 1032 ft | 4 kts | 340° |
| 2026-04-26 16:14 | 46.78319 | 23.68592 | 1032 ft | 0 kts | 341° |